createdAt,value
2023-12-27T00:00:30.415Z,98441.13
2023-12-27T00:02:58.970Z,98443.63
2023-12-27T00:05:27.320Z,98445.17
2023-12-27T00:07:54.967Z,98441.56
2023-12-27T00:10:22.518Z,98444.80
2023-12-27T00:12:49.947Z,98443.55
2023-12-27T00:15:17.408Z,98441.64
2023-12-27T00:17:45.041Z,98446.99
2023-12-27T00:20:12.613Z,98448.39
2023-12-27T00:22:40.370Z,98450.55
2023-12-27T00:25:08.290Z,98448.98
2023-12-27T00:27:35.729Z,98454.67
2023-12-27T00:30:04.265Z,98449.92
2023-12-27T00:32:31.940Z,98451.59
2023-12-27T00:34:59.450Z,98455.84
2023-12-27T00:37:26.902Z,98458.23
2023-12-27T00:39:54.316Z,98463.55
2023-12-27T00:42:22.931Z,98463.02
2023-12-27T00:44:51.215Z,98461.70
2023-12-27T00:47:18.711Z,98455.04
2023-12-27T00:49:46.199Z,98467.01
2023-12-27T00:52:13.703Z,98464.58
2023-12-27T00:54:41.179Z,98462.73
2023-12-27T00:57:09.027Z,98469.40
2023-12-27T00:59:36.595Z,98465.10
2023-12-27T01:02:04.691Z,98465.98
2023-12-27T01:04:33.795Z,98468.35
2023-12-27T01:07:01.310Z,98461.76
2023-12-27T01:09:28.925Z,98463.17
2023-12-27T01:11:56.546Z,98460.17
2023-12-27T01:14:24.953Z,98461.34
2023-12-27T01:16:52.397Z,98460.89
2023-12-27T01:19:20.444Z,98458.02
2023-12-27T01:21:48.063Z,98459.11
2023-12-27T01:24:15.513Z,98458.27
2023-12-27T01:26:43.038Z,98459.09
2023-12-27T01:29:10.634Z,98455.83
2023-12-27T01:31:38.096Z,98456.31
2023-12-27T01:34:12.714Z,98451.13
2023-12-27T01:36:46.833Z,98452.83
2023-12-27T01:39:14.303Z,98445.27
2023-12-27T01:41:41.822Z,98451.97
2023-12-27T01:44:09.245Z,98452.34
2023-12-27T01:46:36.723Z,98453.83
2023-12-27T01:49:04.539Z,98450.48
2023-12-27T01:51:32.257Z,98449.40
2023-12-27T01:53:59.985Z,98455.58
2023-12-27T01:56:27.418Z,98452.20
2023-12-27T01:58:54.874Z,98451.80
2023-12-27T02:01:22.393Z,98450.17
2023-12-27T02:03:49.937Z,98459.79
2023-12-27T02:06:20.353Z,98455.80
2023-12-27T02:08:48.947Z,98464.24
2023-12-27T02:11:17.224Z,98470.94
2023-12-27T02:13:44.676Z,98472.05
2023-12-27T02:16:12.137Z,98478.52
2023-12-27T02:18:39.746Z,98470.86
2023-12-27T02:21:08.763Z,98474.13
2023-12-27T02:23:37.471Z,98473.97
2023-12-27T02:26:04.964Z,98472.73
2023-12-27T02:28:32.550Z,98468.20
2023-12-27T02:31:00.079Z,98475.48
2023-12-27T02:33:27.760Z,98478.75
2023-12-27T02:35:55.517Z,98481.13
2023-12-27T02:38:23.155Z,98479.45
2023-12-27T02:40:50.673Z,98474.13
2023-12-27T02:43:18.114Z,98471.65
2023-12-27T02:45:45.620Z,98467.88
2023-12-27T02:48:13.228Z,98473.67
2023-12-27T02:50:45.006Z,98473.02
2023-12-27T02:53:12.861Z,98474.31
2023-12-27T02:55:41.754Z,98468.62
2023-12-27T02:58:09.221Z,98461.86
2023-12-27T03:00:39.252Z,98450.71
2023-12-27T03:03:06.905Z,98458.63
2023-12-27T03:05:34.890Z,98455.51
2023-12-27T03:08:02.299Z,98451.89
2023-12-27T03:10:29.744Z,98454.66
2023-12-27T03:12:57.187Z,98454.90
2023-12-27T03:15:24.789Z,98459.40
2023-12-27T03:17:52.382Z,98456.30
2023-12-27T03:20:19.901Z,98464.27
2023-12-27T03:22:47.343Z,98470.30
2023-12-27T03:25:14.863Z,98466.55
2023-12-27T03:27:42.400Z,98470.10
2023-12-27T03:30:10.972Z,98465.00
2023-12-27T03:32:38.555Z,98460.70
2023-12-27T03:35:06.662Z,98461.34
2023-12-27T03:37:34.096Z,98463.25
2023-12-27T03:40:01.680Z,98463.73
2023-12-27T03:42:29.177Z,98465.71
2023-12-27T03:44:56.919Z,98463.41
2023-12-27T03:47:24.407Z,98458.48
2023-12-27T03:49:51.883Z,98465.45
2023-12-27T03:52:19.398Z,98462.12
2023-12-27T03:54:46.886Z,98464.13
2023-12-27T03:57:14.354Z,98466.05
2023-12-27T03:59:42.255Z,98462.43
2023-12-27T04:02:10.133Z,98457.89
2023-12-27T04:04:40.110Z,98467.30
2023-12-27T04:07:07.502Z,98462.81
2023-12-27T04:09:35.042Z,98464.30
2023-12-27T04:12:02.579Z,98464.48
2023-12-27T04:14:30.137Z,98467.06
2023-12-27T04:16:57.554Z,98477.04
2023-12-27T04:19:25.087Z,98471.23
2023-12-27T04:21:52.573Z,98474.91
2023-12-27T04:24:20.187Z,98472.40
2023-12-27T04:26:47.670Z,98474.85
2023-12-27T04:29:15.233Z,98478.02
2023-12-27T04:31:42.669Z,98458.08
2023-12-27T04:34:10.231Z,98459.14
2023-12-27T04:36:38.490Z,98464.16
2023-12-27T04:39:08.033Z,98468.20
2023-12-27T04:41:35.601Z,98467.11
2023-12-27T04:44:03.026Z,98460.17
2023-12-27T04:46:30.476Z,98467.13
2023-12-27T04:48:58.150Z,98462.15
2023-12-27T04:51:28.639Z,98460.18
2023-12-27T04:53:57.202Z,98457.91
2023-12-27T04:56:24.786Z,98463.54
2023-12-27T04:58:52.308Z,98462.54
2023-12-27T05:01:19.879Z,98467.64
2023-12-27T05:03:48.272Z,98462.05
2023-12-27T05:06:15.985Z,98457.89
2023-12-27T05:08:44.720Z,98455.58
2023-12-27T05:11:16.641Z,98463.38
2023-12-27T05:13:44.690Z,98466.95
2023-12-27T05:16:13.283Z,98464.34
2023-12-27T05:18:41.403Z,98473.23
2023-12-27T05:21:09.577Z,98468.41
2023-12-27T05:23:37.366Z,98467.33
2023-12-27T05:26:05.306Z,98466.48
2023-12-27T05:28:33.285Z,98459.98
2023-12-27T05:31:01.206Z,98463.20
2023-12-27T05:33:28.979Z,98466.69
2023-12-27T05:35:58.437Z,98469.34
2023-12-27T05:38:26.242Z,98470.15
2023-12-27T05:40:53.816Z,98470.35
2023-12-27T05:43:21.238Z,98477.87
2023-12-27T05:45:48.841Z,98477.09
2023-12-27T05:48:16.441Z,98478.25
2023-12-27T05:50:45.013Z,98478.23
2023-12-27T05:53:14.995Z,98478.40
2023-12-27T05:55:42.884Z,98471.23
2023-12-27T05:58:10.464Z,98473.06
2023-12-27T06:00:39.047Z,98471.91
2023-12-27T06:03:06.808Z,98472.43
2023-12-27T06:05:34.532Z,98474.20
2023-12-27T06:08:02.073Z,98480.85
2023-12-27T06:10:31.143Z,98482.59
2023-12-27T06:12:58.769Z,98489.00
2023-12-27T06:15:26.205Z,98493.43
2023-12-27T06:17:53.738Z,98497.31
2023-12-27T06:20:21.508Z,98499.44
2023-12-27T06:22:48.952Z,98490.00
2023-12-27T06:25:16.466Z,98493.66
2023-12-27T06:27:43.973Z,98505.95
2023-12-27T06:30:12.284Z,98510.71
2023-12-27T06:32:39.923Z,98508.30
2023-12-27T06:35:07.846Z,98506.33
2023-12-27T06:37:36.209Z,98509.60
2023-12-27T06:40:06.957Z,98523.14
2023-12-27T06:42:34.453Z,98520.84
2023-12-27T06:45:02.449Z,98511.77
2023-12-27T06:47:30.030Z,98505.54
2023-12-27T06:49:57.608Z,98519.73
2023-12-27T06:52:25.289Z,98521.31
2023-12-27T06:54:52.697Z,98527.99
2023-12-27T06:57:20.150Z,98539.73
2023-12-27T06:59:47.918Z,98523.95
2023-12-27T07:02:15.597Z,98534.80
2023-12-27T07:04:44.821Z,98545.06
2023-12-27T07:07:12.383Z,98549.85
2023-12-27T07:09:39.916Z,98551.90
2023-12-27T07:12:09.859Z,98556.06
2023-12-27T07:14:37.327Z,98562.27
2023-12-27T07:17:05.520Z,98570.10
2023-12-27T07:19:34.155Z,98579.98
2023-12-27T07:22:02.847Z,98584.14
2023-12-27T07:24:31.155Z,98588.34
2023-12-27T07:26:58.893Z,98599.69
2023-12-27T07:29:26.506Z,98602.80
2023-12-27T07:31:54.056Z,98604.70
2023-12-27T07:34:23.193Z,98612.73
2023-12-27T07:36:50.904Z,98611.63
2023-12-27T07:39:18.430Z,98614.10
2023-12-27T07:41:46.149Z,98606.83
2023-12-27T07:44:13.780Z,98616.02
2023-12-27T07:46:41.249Z,98619.61
2023-12-27T07:49:08.764Z,98629.42
2023-12-27T07:51:36.374Z,98637.77
2023-12-27T07:54:04.437Z,98644.40
2023-12-27T07:56:32.173Z,98645.79
2023-12-27T07:58:59.670Z,98648.54
2023-12-27T08:01:31.873Z,98647.52
2023-12-27T08:04:02.600Z,98655.07
2023-12-27T08:06:30.424Z,98663.00
2023-12-27T08:08:58.424Z,98672.24
2023-12-27T08:11:25.916Z,98677.23
2023-12-27T08:13:53.366Z,98686.87
2023-12-27T08:16:20.790Z,98687.73
2023-12-27T08:18:48.360Z,98705.27
2023-12-27T08:21:16.076Z,98717.11
2023-12-27T08:23:43.719Z,98723.46
2023-12-27T08:26:12.125Z,98724.16
2023-12-27T08:28:39.721Z,98732.06
2023-12-27T08:31:08.000Z,98739.69
2023-12-27T08:33:38.579Z,98740.66
2023-12-27T08:36:06.790Z,98732.47
2023-12-27T08:38:34.390Z,98739.98
2023-12-27T08:41:04.395Z,98747.02
2023-12-27T08:43:31.945Z,98740.13
2023-12-27T08:45:59.446Z,98744.41
2023-12-27T08:48:27.166Z,98748.39
2023-12-27T08:50:55.011Z,98757.61
2023-12-27T08:53:22.472Z,98755.30
2023-12-27T08:55:49.927Z,98758.39
2023-12-27T08:58:17.698Z,98767.99
2023-12-27T09:00:45.333Z,98761.60
2023-12-27T09:03:13.028Z,98771.66
2023-12-27T09:05:40.688Z,98776.54
2023-12-27T09:08:08.257Z,98777.88
2023-12-27T09:10:36.481Z,98781.03
2023-12-27T09:13:05.187Z,98782.45
2023-12-27T09:15:32.789Z,98787.79
2023-12-27T09:18:00.965Z,98780.92
2023-12-27T09:20:28.875Z,98786.28
2023-12-27T09:22:56.460Z,98785.57
2023-12-27T09:25:24.158Z,98790.08
2023-12-27T09:27:51.717Z,98796.21
2023-12-27T09:30:19.378Z,98793.09
2023-12-27T09:32:47.197Z,98795.30
2023-12-27T09:35:14.877Z,98801.44
2023-12-27T09:37:42.375Z,98806.89
2023-12-27T09:40:10.846Z,98809.62
2023-12-27T09:42:39.154Z,98810.76
2023-12-27T09:45:10.005Z,98810.42
2023-12-27T09:47:39.229Z,98817.00
2023-12-27T09:50:07.725Z,98814.34
2023-12-27T09:52:35.259Z,98816.39
2023-12-27T09:55:03.834Z,98821.31
2023-12-27T09:57:31.451Z,98821.92
2023-12-27T09:59:59.115Z,98813.34
2023-12-27T10:02:29.944Z,98821.99
2023-12-27T10:05:03.595Z,98816.80
2023-12-27T10:07:31.529Z,98805.93
2023-12-27T10:10:07.935Z,98816.22
2023-12-27T10:12:44.741Z,98820.08
2023-12-27T10:15:15.915Z,98821.30
2023-12-27T10:17:43.744Z,98823.48
2023-12-27T10:20:15.761Z,98821.59
2023-12-27T10:22:43.312Z,98823.83
2023-12-27T10:25:10.814Z,98836.94
2023-12-27T10:27:40.900Z,98834.36
2023-12-27T10:30:09.884Z,98835.49
2023-12-27T10:32:37.609Z,98831.84
2023-12-27T10:35:05.879Z,98835.64
2023-12-27T10:37:33.444Z,98838.83
2023-12-27T10:40:01.226Z,98836.54
2023-12-27T10:42:29.711Z,98837.63
2023-12-27T10:44:57.503Z,98837.57
2023-12-27T10:47:25.111Z,98834.93
2023-12-27T10:49:53.500Z,98840.89
2023-12-27T10:52:21.136Z,98843.96
2023-12-27T10:54:51.691Z,98838.45
2023-12-27T10:57:20.893Z,98841.86
2023-12-27T10:59:48.393Z,98845.30
2023-12-27T11:02:16.121Z,98850.23
2023-12-27T11:06:59.353Z,98850.50
2023-12-27T11:09:26.931Z,98856.68
2023-12-27T11:11:54.541Z,98856.35
2023-12-27T11:14:26.280Z,98861.34
2023-12-27T11:16:54.090Z,98861.10
2023-12-27T11:19:21.675Z,98868.04
2023-12-27T11:21:49.439Z,98871.75
2023-12-27T11:24:17.191Z,98865.08
2023-12-27T11:26:44.719Z,98874.96
2023-12-27T11:29:12.383Z,98878.80
2023-12-27T11:31:40.440Z,98878.35
2023-12-27T11:34:08.368Z,98880.50
2023-12-27T11:36:36.294Z,98885.89
2023-12-27T11:39:20.213Z,98884.41
2023-12-27T11:41:48.809Z,98890.60
2023-12-27T11:44:16.336Z,98886.28
2023-12-27T11:46:44.068Z,98884.86
2023-12-27T11:49:22.610Z,98881.40
2023-12-27T11:51:50.292Z,98896.28
2023-12-27T11:54:23.052Z,98891.92
2023-12-27T11:56:50.606Z,98897.98
2023-12-27T11:59:18.090Z,98902.05
2023-12-27T12:01:45.601Z,98904.17
2023-12-27T12:04:39.191Z,98903.17
2023-12-27T12:07:16.050Z,98903.65
2023-12-27T12:09:48.286Z,98910.74
2023-12-27T12:12:20.959Z,98910.16
2023-12-27T12:14:53.398Z,98917.09
2023-12-27T12:17:22.146Z,98924.52
2023-12-27T12:19:50.790Z,98923.87
2023-12-27T12:22:18.620Z,98926.39
2023-12-27T12:24:46.566Z,98922.06
2023-12-27T12:27:22.258Z,98916.90
2023-12-27T12:29:49.853Z,98922.02
2023-12-27T12:32:17.366Z,98925.76
2023-12-27T12:34:45.173Z,98937.20
2023-12-27T12:37:12.874Z,98946.69
2023-12-27T12:39:40.472Z,98998.48
2023-12-27T12:42:09.334Z,98997.74
2023-12-27T12:44:37.544Z,98989.29
2023-12-27T12:47:05.698Z,98984.69
2023-12-27T12:49:33.370Z,98984.55
2023-12-27T12:52:08.479Z,98988.35
2023-12-27T12:54:37.333Z,98991.68
2023-12-27T12:57:06.004Z,98993.23
2023-12-27T12:59:33.984Z,98996.58
2023-12-27T13:02:02.113Z,98998.34
2023-12-27T13:04:30.324Z,99002.68
2023-12-27T13:07:05.503Z,99006.04
2023-12-27T13:09:33.500Z,99010.21
2023-12-27T13:12:01.524Z,99010.70
2023-12-27T13:14:29.011Z,99020.25
2023-12-27T13:16:56.707Z,99022.70
2023-12-27T13:19:24.454Z,99036.99
2023-12-27T13:21:53.081Z,99033.39
2023-12-27T13:24:20.851Z,99039.70
2023-12-27T13:26:48.425Z,99046.38
2023-12-27T13:29:16.579Z,99047.54
2023-12-27T13:31:44.237Z,99055.84
2023-12-27T13:34:12.205Z,99052.94
2023-12-27T13:36:39.818Z,99059.90
2023-12-27T13:39:08.513Z,99074.15
2023-12-27T13:41:36.083Z,99066.58
2023-12-27T13:44:03.611Z,99064.12
2023-12-27T13:46:32.056Z,99067.23
2023-12-27T13:48:59.796Z,99066.12
2023-12-27T13:51:27.718Z,99074.38
2023-12-27T13:53:55.211Z,99075.91
2023-12-27T13:56:22.807Z,99073.77
2023-12-27T13:58:50.289Z,99072.09
2023-12-27T14:01:17.968Z,99080.95
2023-12-27T14:03:45.628Z,99081.69
2023-12-27T14:06:15.148Z,99084.30
2023-12-27T14:08:44.035Z,99083.88
2023-12-27T14:11:11.595Z,99091.49
2023-12-27T14:13:39.161Z,99099.36
2023-12-27T14:16:06.778Z,99107.52
2023-12-27T14:18:34.391Z,99110.58
2023-12-27T14:21:02.594Z,99115.59
2023-12-27T14:23:30.234Z,99124.86
2023-12-27T14:25:58.575Z,99131.99
2023-12-27T14:28:26.083Z,99140.14
2023-12-27T14:30:54.744Z,99152.60
2023-12-27T14:33:22.428Z,99159.92
2023-12-27T14:35:50.001Z,99163.14
2023-12-27T14:38:17.470Z,99159.90
2023-12-27T14:40:45.005Z,99146.23
2023-12-27T14:43:12.735Z,99165.16
2023-12-27T14:45:40.557Z,99168.10
2023-12-27T14:48:08.495Z,99177.30
2023-12-27T14:50:36.462Z,99186.62
2023-12-27T14:53:04.487Z,99198.04
2023-12-27T14:55:32.301Z,99199.30
2023-12-27T14:58:00.073Z,99200.86
2023-12-27T15:00:28.936Z,99209.29
2023-12-27T15:02:56.516Z,99212.92
2023-12-27T15:05:24.325Z,99225.13
2023-12-27T15:08:17.125Z,99229.48
2023-12-27T15:10:44.626Z,99233.53
2023-12-27T15:13:12.150Z,99245.08
2023-12-27T15:15:39.750Z,99244.96
2023-12-27T15:18:07.614Z,99244.12
2023-12-27T15:20:35.235Z,99248.16
2023-12-27T15:23:04.254Z,99247.93
2023-12-27T15:25:31.752Z,99243.55
2023-12-27T15:27:59.808Z,99244.88
2023-12-27T15:30:27.643Z,99254.52
2023-12-27T15:32:55.392Z,99265.21
2023-12-27T15:35:23.026Z,99274.96
2023-12-27T15:37:50.552Z,99283.41
2023-12-27T15:40:17.992Z,99294.48
2023-12-27T15:42:46.497Z,99298.96
2023-12-27T15:45:14.151Z,99300.91
2023-12-27T15:47:45.521Z,99308.20
2023-12-27T15:50:13.377Z,99323.75
2023-12-27T15:52:42.912Z,99323.46
2023-12-27T15:55:10.527Z,99326.96
2023-12-27T15:57:38.536Z,99336.88
2023-12-27T16:00:07.112Z,99341.34
2023-12-27T16:02:34.622Z,99339.67
2023-12-27T16:05:02.218Z,99348.75
2023-12-27T16:07:29.796Z,99346.19
2023-12-27T16:09:57.299Z,99351.20
2023-12-27T16:12:26.888Z,99355.98
2023-12-27T16:14:54.446Z,99362.90
2023-12-27T16:17:21.979Z,99366.35
2023-12-27T16:19:51.901Z,99368.37
2023-12-27T16:22:20.111Z,99373.66
2023-12-27T16:24:47.945Z,99376.11
2023-12-27T16:27:15.630Z,99384.98
2023-12-27T16:29:44.494Z,99388.70
2023-12-27T16:32:15.472Z,99391.91
2023-12-27T16:34:43.532Z,99398.80
2023-12-27T16:37:11.235Z,99407.89
2023-12-27T16:39:38.797Z,99413.08
2023-12-27T16:42:10.029Z,99417.50
2023-12-27T16:44:37.720Z,99428.67
2023-12-27T16:47:07.850Z,99431.62
2023-12-27T16:49:35.591Z,99442.58
2023-12-27T16:52:04.028Z,99448.79
2023-12-27T16:54:31.754Z,99448.04
2023-12-27T16:56:59.208Z,99455.09
2023-12-27T16:59:26.739Z,99456.11
2023-12-27T17:01:54.236Z,99464.81
2023-12-27T17:04:21.874Z,99470.56
2023-12-27T17:06:49.539Z,99470.11
2023-12-27T17:09:17.206Z,99474.31
2023-12-27T17:11:45.222Z,99479.52
2023-12-27T17:14:12.685Z,99476.50
2023-12-27T17:16:40.176Z,99480.92
2023-12-27T17:19:07.761Z,99489.52
2023-12-27T17:21:35.486Z,99494.59
2023-12-27T17:24:03.778Z,99505.02
2023-12-27T17:26:31.245Z,99510.35
2023-12-27T17:28:58.784Z,99512.81
2023-12-27T17:31:26.603Z,99517.90
2023-12-27T17:33:54.271Z,99524.42
2023-12-27T17:36:21.946Z,99532.46
2023-12-27T17:38:49.490Z,99531.66
2023-12-27T17:41:16.988Z,99536.16
2023-12-27T17:43:44.516Z,99535.25
2023-12-27T17:46:12.046Z,99535.78
2023-12-27T17:48:45.045Z,99540.51
2023-12-27T17:51:13.011Z,99543.16
2023-12-27T17:53:40.515Z,99546.09
2023-12-27T17:56:08.345Z,99550.01
2023-12-27T17:58:35.870Z,99554.42
2023-12-27T18:01:03.533Z,99551.67
2023-12-27T18:03:31.556Z,99553.10
2023-12-27T18:05:59.220Z,99558.63
2023-12-27T18:08:26.757Z,99554.94
2023-12-27T18:10:54.233Z,99565.77
2023-12-27T18:13:21.700Z,99565.85
2023-12-27T18:15:49.309Z,99574.67
2023-12-27T18:18:18.399Z,99581.94
2023-12-27T18:20:46.024Z,99585.17
2023-12-27T18:23:13.951Z,99585.20
2023-12-27T18:25:42.133Z,99591.42
2023-12-27T18:28:09.846Z,99598.67
2023-12-27T18:30:37.479Z,99602.54
2023-12-27T18:33:05.621Z,99611.42
2023-12-27T18:35:33.678Z,99611.15
2023-12-27T18:38:01.131Z,99614.10
2023-12-27T18:40:28.848Z,99620.38
2023-12-27T18:42:57.638Z,99624.66
2023-12-27T18:45:26.232Z,99627.71
2023-12-27T18:47:53.949Z,99633.17
2023-12-27T18:50:21.891Z,99638.09
2023-12-27T18:52:49.679Z,99635.31
2023-12-27T18:55:17.435Z,99636.33
2023-12-27T18:57:44.990Z,99644.25
2023-12-27T19:00:14.480Z,99647.85
2023-12-27T19:02:43.716Z,99648.88
2023-12-27T19:05:11.580Z,99652.05
2023-12-27T19:07:39.138Z,99655.21
2023-12-27T19:10:08.513Z,99656.27
2023-12-27T19:12:36.247Z,99661.56
2023-12-27T19:15:04.450Z,99667.77
2023-12-27T19:17:31.926Z,99668.50
2023-12-27T19:20:00.539Z,99672.81
2023-12-27T19:22:28.500Z,99684.70
2023-12-27T19:24:56.034Z,99685.53
2023-12-27T19:27:23.829Z,99685.08
2023-12-27T19:29:51.344Z,99690.60
2023-12-27T19:32:18.843Z,99698.73
2023-12-27T19:34:46.455Z,99695.03
2023-12-27T19:37:14.075Z,99703.43
2023-12-27T19:39:41.618Z,99698.59
2023-12-27T19:42:15.317Z,99706.73
2023-12-27T19:44:42.929Z,99706.67
2023-12-27T19:47:11.147Z,99706.52
2023-12-27T19:49:38.748Z,99699.93
2023-12-27T19:52:06.866Z,99713.05
2023-12-27T19:54:34.404Z,99706.73
2023-12-27T19:57:02.327Z,99712.05
2023-12-27T19:59:29.869Z,99714.52
2023-12-27T20:01:57.406Z,99724.42
2023-12-27T20:04:25.058Z,99717.59
2023-12-27T20:06:52.769Z,99721.23
2023-12-27T20:09:20.546Z,99714.25
2023-12-27T20:11:48.041Z,99721.42
2023-12-27T20:14:17.107Z,99718.76
2023-12-27T20:16:44.641Z,99718.17
2023-12-27T20:19:12.253Z,99722.70
2023-12-27T20:21:39.947Z,99720.27
2023-12-27T20:24:08.157Z,99724.25
2023-12-27T20:26:36.246Z,99727.98
2023-12-27T20:29:04.754Z,99727.57
2023-12-27T20:31:32.516Z,99718.86
2023-12-27T20:34:00.239Z,99718.29
2023-12-27T20:36:28.183Z,99729.20
2023-12-27T20:39:00.059Z,99726.61
2023-12-27T20:41:27.751Z,99732.66
2023-12-27T20:43:55.444Z,99740.15
2023-12-27T20:46:22.913Z,99741.91
2023-12-27T20:48:50.958Z,99744.91
2023-12-27T20:51:18.707Z,99746.40
2023-12-27T20:53:46.742Z,99750.14
2023-12-27T20:56:16.200Z,99754.30
2023-12-27T20:58:43.689Z,99755.53
2023-12-27T21:01:11.509Z,99760.95
2023-12-27T21:03:39.259Z,99758.98
2023-12-27T21:06:06.852Z,99757.17
2023-12-27T21:08:34.483Z,99761.02
2023-12-27T21:11:02.059Z,99761.83
2023-12-27T21:13:29.535Z,99765.32
2023-12-27T21:15:57.085Z,99771.37
2023-12-27T21:18:24.711Z,99774.98
2023-12-27T21:20:52.245Z,99781.05
2023-12-27T21:23:21.783Z,99785.60
2023-12-27T21:25:50.349Z,99782.33
2023-12-27T21:28:17.831Z,99781.24
2023-12-27T21:30:45.487Z,99783.00
2023-12-27T21:33:13.143Z,99784.58
2023-12-27T21:35:40.787Z,99792.59
2023-12-27T21:38:08.256Z,99794.89
2023-12-27T21:40:35.755Z,99789.40
2023-12-27T21:43:03.268Z,99784.55
2023-12-27T21:45:32.746Z,99785.05
2023-12-27T21:48:00.798Z,99787.29
2023-12-27T21:50:28.596Z,99792.65
2023-12-27T21:52:56.037Z,99798.77
2023-12-27T21:55:23.464Z,99802.58
2023-12-27T21:57:50.972Z,99796.02
2023-12-27T22:00:21.397Z,99798.48
2023-12-27T22:02:48.978Z,99797.30
2023-12-27T22:05:18.627Z,99798.59
2023-12-27T22:07:49.571Z,99801.70
2023-12-27T22:10:22.272Z,99807.20
2023-12-27T22:12:49.808Z,99806.23
2023-12-27T22:15:17.388Z,99810.35
2023-12-27T22:17:44.922Z,99812.84
2023-12-27T22:20:13.141Z,99810.13
2023-12-27T22:22:41.762Z,99812.45
2023-12-27T22:25:09.842Z,99811.60
2023-12-27T22:27:38.785Z,99811.13
2023-12-27T22:30:07.531Z,99816.22
2023-12-27T22:32:35.011Z,99816.52
2023-12-27T22:35:03.143Z,99817.02
2023-12-27T22:37:32.529Z,99826.73
2023-12-27T22:39:59.998Z,99827.13
2023-12-27T22:42:27.468Z,99832.95
2023-12-27T22:44:56.055Z,99835.98
2023-12-27T22:47:26.047Z,99833.19
2023-12-27T22:49:53.713Z,99829.73
2023-12-27T22:52:21.248Z,99828.32
2023-12-27T22:54:48.752Z,99825.46
2023-12-27T22:57:16.302Z,99831.70
2023-12-27T22:59:43.783Z,99837.73
2023-12-27T23:02:11.215Z,99840.26
2023-12-27T23:04:38.842Z,99848.98
2023-12-27T23:07:06.418Z,99849.82
2023-12-27T23:09:34.650Z,99847.70
2023-12-27T23:12:02.242Z,99853.80
2023-12-27T23:14:29.678Z,99850.55
2023-12-27T23:16:57.322Z,99849.36
2023-12-27T23:19:24.857Z,99853.73
2023-12-27T23:24:56.991Z,99863.19
2023-12-27T23:27:25.927Z,99862.29
2023-12-27T23:29:53.919Z,99860.50
2023-12-27T23:32:21.427Z,99861.14
2023-12-27T23:34:49.092Z,99862.58
2023-12-27T23:37:16.656Z,99863.14
2023-12-27T23:39:44.362Z,99863.07
2023-12-27T23:42:12.143Z,99868.04
2023-12-27T23:44:39.715Z,99865.05
2023-12-27T23:47:07.206Z,99876.58
2023-12-27T23:49:35.040Z,99875.45
2023-12-27T23:52:02.647Z,99883.91
2023-12-27T23:54:30.165Z,99888.34
2023-12-27T23:56:57.613Z,99885.44
2023-12-27T23:59:25.481Z,99884.81
